createdAt,value
2024-02-05T00:00:14.499Z,80.9
2024-02-05T00:01:14.063Z,80.8
2024-02-05T00:02:13.996Z,80.8
2024-02-05T00:03:14.043Z,80.8
2024-02-05T00:04:14.165Z,81.0
2024-02-05T00:05:14.248Z,80.9
2024-02-05T00:06:14.008Z,81.0
2024-02-05T00:07:14.040Z,80.9
2024-02-05T00:08:14.115Z,81.0
2024-02-05T00:09:14.055Z,80.9
2024-02-05T00:10:14.057Z,81.0
2024-02-05T00:11:14.018Z,81.0
2024-02-05T00:12:14.017Z,81.0
2024-02-05T00:13:14.062Z,81.1
2024-02-05T00:14:13.989Z,80.9
2024-02-05T00:15:14.005Z,80.9
2024-02-05T00:16:14.019Z,80.9
2024-02-05T00:17:13.958Z,81.0
2024-02-05T00:18:14.012Z,80.9
2024-02-05T00:19:14.157Z,81.1
2024-02-05T00:20:14.056Z,81.0
2024-02-05T00:21:14.793Z,81.1
2024-02-05T00:22:14.117Z,81.3
2024-02-05T00:23:13.945Z,81.3
2024-02-05T00:24:13.992Z,81.1
2024-02-05T00:25:14.049Z,81.2
2024-02-05T00:26:14.003Z,81.2
2024-02-05T00:27:14.019Z,81.2
2024-02-05T00:28:13.989Z,81.2
2024-02-05T00:29:13.989Z,81.3
2024-02-05T00:30:13.930Z,81.4
2024-02-05T00:31:14.070Z,81.3
2024-02-05T00:32:14.024Z,81.5
2024-02-05T00:33:14.035Z,81.5
2024-02-05T00:34:14.081Z,81.5
2024-02-05T00:35:14.008Z,81.5
2024-02-05T00:36:13.941Z,81.4
2024-02-05T00:37:14.143Z,81.5
2024-02-05T00:38:13.964Z,81.4
2024-02-05T00:39:13.977Z,81.3
2024-02-05T00:40:13.953Z,81.3
2024-02-05T00:41:13.928Z,81.3
2024-02-05T00:42:14.388Z,81.3
2024-02-05T00:43:13.948Z,81.6
2024-02-05T00:44:13.958Z,81.4
2024-02-05T00:45:14.121Z,81.5
2024-02-05T00:46:14.137Z,81.7
2024-02-05T00:47:13.911Z,81.5
2024-02-05T00:48:13.964Z,81.5
2024-02-05T00:49:13.990Z,81.5
2024-02-05T00:50:13.987Z,81.4
2024-02-05T00:51:13.946Z,81.4
2024-02-05T00:52:14.013Z,81.4
2024-02-05T00:53:14.361Z,81.4
2024-02-05T00:54:14.278Z,81.6
2024-02-05T00:55:14.150Z,81.5
2024-02-05T00:56:13.936Z,81.5
2024-02-05T00:57:13.900Z,81.5
2024-02-05T00:58:14.119Z,81.4
2024-02-05T00:59:13.890Z,81.5
2024-02-05T01:00:13.949Z,81.4
2024-02-05T01:01:14.062Z,81.4
2024-02-05T01:02:13.929Z,81.4
2024-02-05T01:03:13.942Z,81.6
2024-02-05T01:04:14.141Z,81.6
2024-02-05T01:05:14.384Z,81.5
2024-02-05T01:06:14.238Z,81.5
2024-02-05T01:07:14.031Z,81.6
2024-02-05T01:08:13.894Z,81.6
2024-02-05T01:09:13.952Z,81.5
2024-02-05T01:10:14.078Z,81.5
2024-02-05T01:11:13.970Z,81.5
2024-02-05T01:12:13.986Z,81.6
2024-02-05T01:13:14.050Z,81.6
2024-02-05T01:14:13.878Z,81.7
2024-02-05T01:15:14.280Z,81.7
2024-02-05T01:16:14.069Z,81.7
2024-02-05T01:17:13.906Z,81.7
2024-02-05T01:18:14.033Z,81.6
2024-02-05T01:19:13.945Z,81.8
2024-02-05T01:20:13.883Z,81.7
2024-02-05T01:21:13.920Z,81.7
2024-02-05T01:22:13.976Z,81.7
2024-02-05T01:23:13.965Z,81.7
2024-02-05T01:24:13.884Z,81.7
2024-02-05T01:25:13.981Z,81.7
2024-02-05T01:26:14.087Z,82.0
2024-02-05T01:27:13.853Z,81.7
2024-02-05T01:28:13.908Z,81.8
2024-02-05T01:29:13.891Z,81.9
2024-02-05T01:30:13.919Z,81.8
2024-02-05T01:31:14.033Z,81.7
2024-02-05T01:32:13.844Z,81.8
2024-02-05T01:33:14.067Z,81.8
2024-02-05T01:34:14.113Z,81.9
2024-02-05T01:35:14.204Z,81.9
2024-02-05T01:36:13.985Z,81.9
2024-02-05T01:37:13.932Z,82.0
2024-02-05T01:38:14.118Z,82.0
2024-02-05T01:39:13.865Z,81.9
2024-02-05T01:40:14.009Z,81.9
2024-02-05T01:41:13.940Z,81.9
2024-02-05T01:42:13.852Z,81.9
2024-02-05T01:43:13.995Z,81.9
2024-02-05T01:44:13.969Z,81.9
2024-02-05T01:45:13.995Z,81.9
2024-02-05T01:46:13.941Z,81.9
2024-02-05T01:47:13.838Z,82.1
2024-02-05T01:48:13.912Z,82.0
2024-02-05T01:49:14.361Z,82.0
2024-02-05T01:50:14.185Z,81.9
2024-02-05T01:51:13.969Z,81.9
2024-02-05T01:52:13.917Z,82.0
2024-02-05T01:53:13.844Z,82.0
2024-02-05T01:54:13.908Z,81.9
2024-02-05T01:55:14.175Z,82.0
2024-02-05T01:56:13.906Z,82.0
2024-02-05T01:57:13.975Z,82.2
2024-02-05T01:58:13.939Z,82.1
2024-02-05T01:59:13.831Z,82.0
2024-02-05T02:00:13.874Z,82.0
2024-02-05T02:01:13.989Z,82.0
2024-02-05T02:02:13.934Z,82.1
2024-02-05T02:03:13.850Z,82.1
2024-02-05T02:04:14.068Z,82.1
2024-02-05T02:05:14.182Z,82.1
2024-02-05T02:06:14.052Z,82.1
2024-02-05T02:07:13.907Z,82.1
2024-02-05T02:08:13.846Z,82.1
2024-02-05T02:09:14.016Z,82.1
2024-02-05T02:10:13.834Z,82.1
2024-02-05T02:11:13.811Z,82.2
2024-02-05T02:12:13.887Z,82.3
2024-02-05T02:13:15.492Z,82.3
2024-02-05T02:14:13.859Z,82.3
2024-02-05T02:15:13.913Z,82.4
2024-02-05T02:16:13.851Z,82.3
2024-02-05T02:17:13.797Z,82.5
2024-02-05T02:18:13.807Z,82.6
2024-02-05T02:19:13.936Z,82.4
2024-02-05T02:20:13.966Z,82.3
2024-02-05T02:21:14.005Z,82.3
2024-02-05T02:22:13.939Z,82.4
2024-02-05T02:23:13.807Z,82.3
2024-02-05T02:24:13.808Z,82.3
2024-02-05T02:25:13.838Z,82.3
2024-02-05T02:26:13.769Z,82.3
2024-02-05T02:27:13.766Z,82.3
2024-02-05T02:28:13.820Z,82.2
2024-02-05T02:29:13.761Z,82.4
2024-02-05T02:30:13.741Z,82.3
2024-02-05T02:31:13.902Z,82.3
2024-02-05T02:32:13.738Z,82.3
2024-02-05T02:33:13.882Z,82.3
2024-02-05T02:34:13.936Z,82.5
2024-02-05T02:35:13.761Z,82.3
2024-02-05T02:36:13.747Z,82.3
2024-02-05T02:37:13.808Z,82.3
2024-02-05T02:38:13.759Z,82.3
2024-02-05T02:39:13.813Z,82.3
2024-02-05T02:40:13.860Z,82.3
2024-02-05T02:41:13.756Z,82.3
2024-02-05T02:42:13.724Z,82.3
2024-02-05T02:43:13.961Z,82.3
2024-02-05T02:44:13.779Z,82.4
2024-02-05T02:45:13.724Z,82.3
2024-02-05T02:46:13.911Z,82.3
2024-02-05T02:47:13.735Z,82.3
2024-02-05T02:48:13.862Z,82.3
2024-02-05T02:49:13.811Z,82.3
2024-02-05T02:50:13.726Z,82.3
2024-02-05T02:51:13.735Z,82.3
2024-02-05T02:52:13.782Z,82.3
2024-02-05T02:53:13.713Z,82.3
2024-02-05T02:54:13.868Z,82.3
2024-02-05T02:55:13.827Z,82.3
2024-02-05T02:56:13.717Z,82.3
2024-02-05T02:57:13.717Z,82.3
2024-02-05T02:58:13.769Z,82.4
2024-02-05T02:59:13.733Z,82.3
2024-02-05T03:00:13.718Z,82.4
2024-02-05T03:01:13.734Z,82.4
2024-02-05T03:02:13.720Z,82.4
2024-02-05T03:03:13.776Z,82.4
2024-02-05T03:04:14.042Z,82.4
2024-02-05T03:05:13.785Z,82.5
2024-02-05T03:06:13.723Z,82.4
2024-02-05T03:07:13.742Z,82.4
2024-02-05T03:08:13.714Z,82.4
2024-02-05T03:09:13.687Z,82.5
2024-02-05T03:10:13.753Z,82.5
2024-02-05T03:11:13.693Z,82.5
2024-02-05T03:12:13.711Z,82.5
2024-02-05T03:19:24.897Z,82.5
2024-02-05T03:20:25.626Z,82.5
2024-02-05T03:21:24.842Z,82.5
2024-02-05T03:22:25.322Z,82.5
2024-02-05T03:23:25.764Z,82.5
2024-02-05T03:24:25.677Z,82.5
2024-02-05T03:25:25.608Z,82.5
2024-02-05T03:26:25.595Z,82.5
2024-02-05T03:27:24.909Z,82.5
2024-02-05T03:28:24.886Z,82.5
2024-02-05T03:29:24.924Z,82.5
2024-02-05T03:30:24.800Z,82.5
2024-02-05T03:31:24.968Z,82.5
2024-02-05T03:32:24.785Z,82.5
2024-02-05T03:33:24.761Z,82.5
2024-02-05T03:34:24.839Z,82.5
2024-02-05T03:35:24.920Z,82.5
2024-02-05T03:36:24.753Z,82.5
2024-02-05T03:37:25.604Z,82.5
2024-02-05T03:38:25.281Z,82.5
2024-02-05T03:39:24.794Z,82.6
2024-02-05T03:40:24.850Z,82.6
2024-02-05T03:41:24.766Z,82.6
2024-02-05T03:42:24.841Z,82.6
2024-02-05T03:43:24.858Z,82.6
2024-02-05T03:44:24.770Z,82.6
2024-02-05T03:45:24.813Z,82.6
2024-02-05T03:46:24.861Z,82.6
2024-02-05T03:47:26.236Z,82.6
2024-02-05T03:48:24.863Z,82.6
2024-02-05T03:49:24.784Z,82.6
2024-02-05T03:50:24.787Z,82.6
2024-02-05T03:51:24.761Z,82.6
2024-02-05T03:52:24.799Z,82.6
2024-02-05T03:53:24.801Z,82.6
2024-02-05T03:54:24.725Z,82.7
2024-02-05T03:55:24.786Z,82.7
2024-02-05T03:56:24.772Z,82.7
2024-02-05T03:57:24.773Z,82.7
2024-02-05T03:58:24.842Z,82.7
2024-02-05T03:59:24.862Z,82.7
2024-02-05T04:00:24.769Z,82.7
2024-02-05T04:01:24.823Z,82.7
2024-02-05T04:02:24.775Z,82.7
2024-02-05T04:03:25.129Z,82.7
2024-02-05T04:04:24.766Z,82.7
2024-02-05T04:05:24.698Z,82.7
2024-02-05T04:06:24.790Z,82.7
2024-02-05T04:07:24.873Z,82.7
2024-02-05T04:08:24.766Z,82.7
2024-02-05T04:09:24.795Z,82.8
2024-02-05T04:10:25.087Z,82.8
2024-02-05T04:11:24.736Z,82.8
2024-02-05T04:12:24.733Z,82.8
2024-02-05T04:13:25.152Z,82.9
2024-02-05T04:14:24.719Z,82.9
2024-02-05T04:15:24.774Z,82.9
2024-02-05T04:16:24.852Z,82.9
2024-02-05T04:17:25.267Z,83.0
2024-02-05T04:18:24.852Z,83.0
2024-02-05T04:19:24.788Z,83.0
2024-02-05T04:20:24.833Z,83.0
2024-02-05T04:21:25.682Z,83.0
2024-02-05T04:22:24.794Z,83.0
2024-02-05T04:23:24.783Z,83.0
2024-02-05T04:24:25.514Z,83.0
2024-02-05T04:25:25.630Z,83.0
2024-02-05T04:26:24.698Z,83.0
2024-02-05T04:27:25.211Z,83.0
2024-02-05T04:28:24.825Z,83.0
2024-02-05T04:29:25.531Z,83.0
2024-02-05T04:30:24.685Z,83.0
2024-02-05T04:31:25.676Z,83.0
2024-02-05T04:32:24.869Z,83.0
2024-02-05T04:33:24.820Z,83.0
2024-02-05T04:34:24.705Z,83.0
2024-02-05T04:35:24.684Z,83.1
2024-02-05T04:36:24.675Z,83.1
2024-02-05T04:37:24.709Z,83.1
2024-02-05T04:38:24.728Z,83.4
2024-02-05T04:39:24.676Z,83.3
2024-02-05T04:40:24.739Z,83.3
2024-02-05T04:41:24.668Z,83.3
2024-02-05T04:42:24.818Z,83.3
2024-02-05T04:43:24.676Z,83.3
2024-02-05T04:44:24.705Z,83.3
2024-02-05T04:45:24.686Z,83.3
2024-02-05T04:46:25.232Z,83.3
2024-02-05T04:47:24.697Z,83.3
2024-02-05T04:48:24.682Z,83.4
2024-02-05T04:49:24.861Z,83.6
2024-02-05T04:50:24.685Z,83.5
2024-02-05T04:51:24.656Z,83.6
2024-02-05T04:52:24.670Z,83.7
2024-02-05T04:53:24.864Z,83.7
2024-02-05T04:54:24.794Z,84.0
2024-02-05T04:55:24.737Z,84.0
2024-02-05T04:56:24.694Z,84.0
2024-02-05T04:57:24.663Z,83.9
2024-02-05T04:58:24.734Z,83.9
2024-02-05T04:59:24.635Z,84.0
2024-02-05T05:00:24.625Z,84.1
2024-02-05T05:01:24.817Z,83.9
2024-02-05T05:02:24.652Z,83.9
2024-02-05T05:03:24.695Z,83.9
2024-02-05T05:04:24.690Z,83.8
2024-02-05T05:05:24.807Z,83.8
2024-02-05T05:06:24.730Z,83.8
2024-02-05T05:07:24.870Z,83.8
2024-02-05T05:08:24.644Z,83.8
2024-02-05T05:09:24.625Z,84.0
2024-02-05T05:10:24.676Z,84.0
2024-02-05T05:11:24.669Z,84.0
2024-02-05T05:12:24.691Z,84.1
2024-02-05T05:13:24.668Z,84.1
2024-02-05T05:14:24.638Z,84.1
2024-02-05T05:15:24.643Z,84.0
2024-02-05T05:16:24.838Z,84.2
2024-02-05T05:17:24.717Z,84.2
2024-02-05T05:18:24.801Z,84.3
2024-02-05T05:19:24.673Z,84.3
2024-02-05T05:20:24.637Z,84.4
2024-02-05T05:21:28.076Z,84.2
2024-02-05T05:22:24.651Z,84.2
2024-02-05T05:23:24.673Z,84.2
2024-02-05T05:24:24.613Z,84.2
2024-02-05T05:25:24.626Z,84.3
2024-02-05T05:26:24.831Z,84.2
2024-02-05T05:27:24.605Z,84.2
2024-02-05T05:28:24.736Z,84.3
2024-02-05T05:29:24.601Z,84.3
2024-02-05T05:30:24.573Z,84.3
2024-02-05T05:31:24.652Z,84.2
2024-02-05T05:32:24.639Z,84.4
2024-02-05T05:33:24.630Z,84.4
2024-02-05T05:34:24.761Z,84.4
2024-02-05T05:35:24.620Z,84.3
2024-02-05T05:36:24.652Z,84.5
2024-02-05T05:37:24.953Z,84.4
2024-02-05T05:38:24.620Z,84.5
2024-02-05T05:39:24.616Z,84.6
2024-02-05T05:40:24.739Z,84.6
2024-02-05T05:41:24.680Z,84.7
2024-02-05T05:42:24.592Z,84.7
2024-02-05T05:43:24.649Z,84.6
2024-02-05T05:44:24.585Z,84.5
2024-02-05T05:45:24.593Z,84.6
2024-02-05T05:46:24.663Z,84.8
2024-02-05T05:47:24.569Z,84.8
2024-02-05T05:48:24.585Z,84.6
2024-02-05T05:49:24.636Z,84.6
2024-02-05T05:50:24.682Z,84.8
2024-02-05T05:51:24.641Z,84.7
2024-02-05T05:52:24.634Z,84.8
2024-02-05T05:53:24.603Z,84.9
2024-02-05T05:54:24.568Z,84.7
2024-02-05T05:55:24.628Z,84.8
2024-02-05T05:56:24.648Z,84.8
2024-02-05T05:57:24.534Z,84.7
2024-02-05T05:58:24.655Z,84.7
2024-02-05T05:59:24.641Z,84.7
2024-02-05T06:00:24.556Z,84.8
2024-02-05T06:01:25.362Z,84.8
2024-02-05T06:02:24.656Z,85.0
2024-02-05T06:03:24.550Z,85.1
2024-02-05T06:04:24.592Z,85.0
2024-02-05T06:05:24.664Z,85.0
2024-02-05T06:06:24.597Z,84.9
2024-02-05T06:07:24.642Z,84.8
2024-02-05T06:08:24.607Z,84.8
2024-02-05T06:09:25.740Z,85.1
2024-02-05T06:10:25.353Z,84.9
2024-02-05T06:11:25.272Z,85.3
2024-02-05T06:12:24.984Z,85.1
2024-02-05T06:13:24.642Z,85.2
2024-02-05T06:14:24.730Z,85.2
2024-02-05T06:15:24.536Z,85.4
2024-02-05T06:16:24.583Z,85.2
2024-02-05T06:17:24.599Z,85.4
2024-02-05T06:18:24.755Z,85.3
2024-02-05T06:19:24.799Z,85.2
2024-02-05T06:20:24.649Z,85.6
2024-02-05T06:21:24.610Z,85.3
2024-02-05T06:22:24.847Z,85.2
2024-02-05T06:23:24.707Z,85.2
2024-02-05T06:24:24.571Z,85.1
2024-02-05T06:25:24.653Z,85.3
2024-02-05T06:26:24.631Z,85.2
2024-02-05T06:27:24.619Z,85.2
2024-02-05T06:28:24.558Z,85.2
2024-02-05T06:29:24.563Z,85.6
2024-02-05T06:30:24.529Z,85.5
2024-02-05T06:31:24.635Z,85.5
2024-02-05T06:32:24.681Z,85.5
2024-02-05T06:33:24.577Z,85.4
2024-02-05T06:34:24.725Z,85.3
2024-02-05T06:35:24.658Z,85.5
2024-02-05T06:36:24.507Z,85.4
2024-02-05T06:37:24.622Z,85.4
2024-02-05T06:38:24.511Z,85.7
2024-02-05T06:39:24.556Z,85.8
2024-02-05T06:40:24.628Z,85.4
2024-02-05T06:41:24.511Z,85.4
2024-02-05T06:42:24.554Z,85.6
2024-02-05T06:43:24.810Z,85.5
2024-02-05T06:44:24.510Z,85.4
2024-02-05T06:45:24.505Z,85.4
2024-02-05T06:46:24.520Z,85.5
2024-02-05T06:47:24.522Z,85.3
2024-02-05T06:48:24.575Z,85.4
2024-02-05T06:49:24.592Z,85.6
2024-02-05T06:50:24.525Z,85.7
2024-02-05T06:51:24.501Z,85.5
2024-02-05T06:52:24.594Z,85.6
2024-02-05T06:53:24.485Z,85.7
2024-02-05T06:54:24.647Z,85.6
2024-02-05T06:55:24.600Z,85.5
2024-02-05T06:56:24.474Z,85.5
2024-02-05T06:57:24.508Z,85.6
2024-02-05T06:58:24.605Z,85.6
2024-02-05T06:59:24.477Z,85.6
2024-02-05T07:00:24.485Z,85.7
2024-02-05T07:01:24.585Z,85.5
2024-02-05T07:02:24.498Z,85.8
2024-02-05T07:03:24.477Z,86.2
2024-02-05T07:04:24.649Z,85.8
2024-02-05T07:05:24.762Z,85.8
2024-02-05T07:06:24.490Z,85.6
2024-02-05T07:07:28.712Z,85.6
2024-02-05T07:08:24.493Z,85.5
2024-02-05T07:09:24.459Z,85.6
2024-02-05T07:10:24.666Z,85.6
2024-02-05T07:11:24.622Z,85.5
2024-02-05T07:12:24.490Z,85.6
2024-02-05T07:13:24.552Z,85.5
2024-02-05T07:14:24.414Z,85.4
2024-02-05T07:15:24.457Z,85.5
2024-02-05T07:16:24.749Z,85.5
2024-02-05T07:17:24.473Z,85.5
2024-02-05T07:18:24.634Z,85.6
2024-02-05T07:19:27.787Z,85.8
2024-02-05T07:20:24.434Z,85.6
2024-02-05T07:21:24.441Z,85.5
2024-02-05T07:22:24.483Z,85.5
2024-02-05T07:23:24.467Z,85.6
2024-02-05T07:24:24.474Z,85.5
2024-02-05T07:25:24.469Z,85.6
2024-02-05T07:26:24.547Z,85.7
2024-02-05T07:27:24.525Z,85.7
2024-02-05T07:28:24.503Z,85.7
2024-02-05T07:29:24.439Z,85.7
2024-02-05T07:30:24.443Z,85.7
2024-02-05T07:31:24.599Z,85.8
2024-02-05T07:32:24.404Z,86.0
2024-02-05T07:33:24.495Z,85.8
2024-02-05T07:34:24.476Z,85.8
2024-02-05T07:35:24.473Z,85.7
2024-02-05T07:36:24.401Z,85.7
2024-02-05T07:37:24.787Z,85.8
2024-02-05T07:38:24.479Z,85.7
2024-02-05T07:39:24.448Z,85.6
2024-02-05T07:40:24.562Z,85.6
2024-02-05T07:41:24.377Z,85.5
2024-02-05T07:42:24.403Z,85.6
2024-02-05T07:43:24.566Z,85.7
2024-02-05T07:44:24.448Z,85.5
2024-02-05T07:45:24.403Z,85.3
2024-02-05T07:46:24.607Z,85.1
2024-02-05T07:47:24.395Z,85.0
2024-02-05T07:48:24.671Z,85.0
2024-02-05T07:49:24.419Z,85.0
2024-02-05T07:50:24.438Z,85.0
2024-02-05T07:51:24.411Z,84.9
2024-02-05T07:52:24.618Z,84.9
2024-02-05T07:53:24.632Z,84.9
2024-02-05T07:54:24.387Z,84.9
2024-02-05T07:55:24.558Z,84.8
2024-02-05T07:56:24.390Z,84.8
2024-02-05T07:57:24.400Z,84.8
2024-02-05T07:58:24.675Z,84.9
2024-02-05T07:59:24.540Z,84.9
2024-02-05T08:00:24.435Z,84.9
2024-02-05T08:01:24.553Z,85.0
2024-02-05T08:02:24.405Z,84.9
2024-02-05T08:03:24.493Z,84.9
2024-02-05T08:04:24.543Z,84.9
2024-02-05T08:05:24.728Z,85.0
2024-02-05T08:06:24.468Z,85.0
2024-02-05T08:07:24.559Z,85.0
2024-02-05T08:08:24.415Z,85.0
2024-02-05T08:09:24.360Z,85.0
2024-02-05T08:10:24.546Z,85.0
2024-02-05T08:11:24.423Z,85.0
2024-02-05T08:12:24.540Z,85.0
2024-02-05T08:13:24.808Z,85.1
2024-02-05T08:14:25.345Z,85.0
2024-02-05T08:15:24.471Z,85.0
2024-02-05T08:16:24.675Z,85.0
2024-02-05T08:17:24.968Z,85.0
2024-02-05T08:18:24.773Z,85.0
2024-02-05T08:19:24.475Z,85.0
2024-02-05T08:20:24.324Z,85.0
2024-02-05T08:21:24.307Z,85.0
2024-02-05T08:22:24.487Z,85.0
2024-02-05T08:23:24.522Z,85.0
2024-02-05T08:24:24.474Z,85.0
2024-02-05T08:25:24.735Z,85.0
2024-02-05T08:26:24.493Z,85.0
2024-02-05T08:27:24.371Z,85.0
2024-02-05T08:28:24.550Z,85.1
2024-02-05T08:29:24.569Z,85.0
2024-02-05T08:30:24.549Z,85.0
2024-02-05T08:31:24.405Z,85.0
2024-02-05T08:32:24.636Z,85.1
2024-02-05T08:33:24.426Z,85.1
2024-02-05T08:34:24.378Z,85.1
2024-02-05T08:35:24.315Z,85.0
2024-02-05T08:36:24.342Z,85.0
2024-02-05T08:37:24.420Z,85.0
2024-02-05T08:38:24.401Z,85.1
2024-02-05T08:39:24.321Z,85.1
2024-02-05T08:40:24.478Z,85.1
2024-02-05T08:41:24.350Z,85.1
2024-02-05T08:42:31.849Z,85.1
2024-02-05T08:43:24.707Z,85.1
2024-02-05T08:44:24.295Z,85.1
2024-02-05T08:45:24.289Z,85.1
2024-02-05T08:46:24.381Z,85.1
2024-02-05T08:47:24.396Z,85.1
2024-02-05T08:48:24.716Z,85.1
2024-02-05T08:49:24.360Z,85.1
2024-02-05T08:50:24.381Z,85.2
2024-02-05T08:51:24.285Z,85.2
2024-02-05T08:52:24.419Z,85.1
2024-02-05T08:53:24.391Z,85.1
2024-02-05T08:54:24.422Z,85.1
2024-02-05T08:55:24.477Z,85.2
2024-02-05T08:56:24.304Z,85.2
2024-02-05T08:57:24.281Z,85.3
2024-02-05T08:58:24.414Z,85.3
2024-02-05T08:59:24.304Z,85.3
2024-02-05T09:00:24.393Z,85.4
2024-02-05T09:01:24.494Z,85.3
2024-02-05T09:02:24.603Z,85.3
2024-02-05T09:03:24.299Z,85.3
2024-02-05T09:04:24.406Z,85.3
2024-02-05T09:05:33.501Z,85.3
2024-02-05T09:06:24.299Z,85.3
2024-02-05T09:07:24.394Z,85.3
2024-02-05T09:08:24.337Z,85.2
2024-02-05T09:09:24.268Z,85.2
2024-02-05T09:10:24.533Z,85.2
2024-02-05T09:11:24.285Z,85.2
2024-02-05T09:12:24.330Z,85.2
2024-02-05T09:13:24.371Z,85.2
2024-02-05T09:14:24.383Z,85.2
2024-02-05T09:15:24.240Z,85.2
2024-02-05T09:16:24.543Z,85.2
2024-02-05T09:17:24.324Z,85.2
2024-02-05T09:18:24.321Z,85.2
2024-02-05T09:19:24.341Z,85.2
2024-02-05T09:20:24.295Z,85.2
2024-02-05T09:21:24.271Z,85.3
2024-02-05T09:22:24.411Z,85.2
2024-02-05T09:23:24.292Z,85.2
2024-02-05T09:24:24.415Z,85.2
2024-02-05T09:25:24.360Z,85.2
2024-02-05T09:26:24.272Z,85.2
2024-02-05T09:27:24.483Z,85.2
2024-02-05T09:28:24.341Z,85.2
2024-02-05T09:29:24.225Z,85.2
2024-02-05T09:30:24.290Z,85.2
2024-02-05T09:31:24.326Z,85.2
2024-02-05T09:32:24.339Z,85.2
2024-02-05T09:33:24.302Z,85.2
2024-02-05T09:34:24.360Z,85.2
2024-02-05T09:35:24.392Z,85.2
2024-02-05T09:36:24.270Z,85.2
2024-02-05T09:37:24.295Z,85.2
2024-02-05T09:38:24.351Z,85.3
2024-02-05T09:39:24.252Z,85.3
2024-02-05T09:40:24.350Z,85.3
2024-02-05T09:41:24.237Z,85.2
2024-02-05T09:42:24.205Z,85.3
2024-02-05T09:43:24.338Z,85.3
2024-02-05T09:44:24.248Z,85.2
2024-02-05T09:45:24.290Z,85.3
2024-02-05T09:46:24.367Z,85.3
2024-02-05T09:47:24.297Z,85.3
2024-02-05T09:48:30.628Z,85.3
2024-02-05T09:49:24.755Z,85.3
2024-02-05T09:50:24.250Z,85.3
2024-02-05T09:51:24.245Z,85.3
2024-02-05T09:52:24.268Z,85.3
2024-02-05T09:53:24.239Z,85.3
2024-02-05T09:54:24.333Z,85.3
2024-02-05T09:55:24.301Z,85.3
2024-02-05T09:56:24.224Z,85.3
2024-02-05T09:57:24.190Z,85.3
2024-02-05T09:58:24.241Z,85.3
2024-02-05T09:59:24.173Z,85.3
2024-02-05T10:00:24.757Z,85.3
2024-02-05T10:01:24.425Z,85.4
2024-02-05T10:02:24.257Z,85.4
2024-02-05T10:03:24.329Z,85.4
2024-02-05T10:04:24.321Z,85.3
2024-02-05T10:05:24.228Z,85.4
2024-02-05T10:06:24.337Z,85.4
2024-02-05T10:07:24.424Z,85.4
2024-02-05T10:08:24.281Z,85.4
2024-02-05T10:09:24.893Z,85.5
2024-02-05T10:10:24.491Z,85.5
2024-02-05T10:11:24.225Z,85.7
2024-02-05T10:12:24.203Z,85.9
2024-02-05T10:13:24.227Z,85.9
2024-02-05T10:14:26.666Z,86.0
2024-02-05T10:15:24.263Z,86.0
2024-02-05T10:16:24.368Z,86.2
2024-02-05T10:17:25.878Z,86.2
2024-02-05T10:18:24.429Z,86.2
2024-02-05T10:19:24.223Z,86.3
2024-02-05T10:20:24.169Z,86.3
2024-02-05T10:21:24.200Z,86.3
2024-02-05T10:22:24.486Z,86.2
2024-02-05T10:23:27.468Z,86.2
2024-02-05T10:24:24.109Z,86.2
2024-02-05T10:25:24.207Z,86.1
2024-02-05T10:26:24.242Z,86.4
2024-02-05T10:27:24.163Z,86.2
2024-02-05T10:28:24.409Z,86.2
2024-02-05T10:29:24.275Z,86.3
2024-02-05T10:30:24.114Z,86.2
2024-02-05T10:31:24.553Z,86.3
2024-02-05T10:32:24.372Z,86.2
2024-02-05T10:33:24.446Z,86.2
2024-02-05T10:34:24.507Z,86.1
2024-02-05T10:35:24.191Z,86.1
2024-02-05T10:36:24.321Z,86.1
2024-02-05T10:37:24.443Z,86.1
2024-02-05T10:38:24.209Z,86.1
2024-02-05T10:39:24.579Z,86.1
2024-02-05T10:40:24.277Z,86.1
2024-02-05T10:41:24.472Z,86.1
2024-02-05T10:42:24.164Z,86.2
2024-02-05T10:43:24.168Z,86.2
2024-02-05T10:44:34.198Z,86.2
2024-02-05T10:45:24.219Z,86.2
2024-02-05T10:46:24.467Z,86.2
2024-02-05T10:47:24.154Z,86.2
2024-02-05T10:48:24.233Z,86.2
2024-02-05T10:49:24.254Z,86.2
2024-02-05T10:50:24.127Z,86.3
2024-02-05T10:51:24.074Z,86.3
2024-02-05T10:52:24.225Z,86.2
2024-02-05T10:53:24.163Z,86.3
2024-02-05T10:54:24.166Z,86.2
2024-02-05T10:55:24.479Z,86.3
2024-02-05T10:56:24.150Z,86.3
2024-02-05T10:57:24.106Z,86.6
2024-02-05T10:58:24.377Z,86.4
2024-02-05T10:59:24.274Z,86.3
2024-02-05T11:00:24.119Z,86.3
2024-02-05T11:01:24.307Z,86.3
2024-02-05T11:02:24.310Z,86.4
2024-02-05T11:03:24.210Z,86.4
2024-02-05T11:04:24.345Z,86.4
2024-02-05T11:05:24.559Z,86.5
2024-02-05T11:06:24.674Z,86.5
2024-02-05T11:07:24.433Z,86.6
2024-02-05T11:08:24.362Z,86.4
2024-02-05T11:09:24.120Z,86.4
2024-02-05T11:10:24.560Z,86.4
2024-02-05T11:11:24.095Z,86.3
2024-02-05T11:12:24.173Z,86.4
2024-02-05T11:13:24.583Z,86.4
2024-02-05T11:14:24.101Z,86.4
2024-02-05T11:15:24.116Z,86.3
2024-02-05T11:16:24.079Z,86.5
2024-02-05T11:17:24.053Z,86.4
2024-02-05T11:18:24.097Z,86.3
2024-02-05T11:19:24.166Z,86.4
2024-02-05T11:20:24.176Z,86.3
2024-02-05T11:21:24.164Z,86.4
2024-02-05T11:22:24.334Z,86.5
2024-02-05T11:23:24.079Z,86.4
2024-02-05T11:24:24.051Z,86.4
2024-02-05T11:25:24.231Z,86.4
2024-02-05T11:26:24.052Z,86.5
2024-02-05T11:27:24.043Z,86.4
2024-02-05T11:28:24.297Z,86.4
2024-02-05T11:29:24.061Z,86.4
2024-02-05T11:30:24.149Z,86.4
2024-02-05T11:31:24.318Z,86.4
2024-02-05T11:32:24.029Z,86.5
2024-02-05T11:33:24.037Z,86.5
2024-02-05T11:34:24.380Z,86.5
2024-02-05T11:35:24.252Z,86.5
2024-02-05T11:36:24.061Z,86.5
2024-02-05T11:37:24.275Z,86.5
2024-02-05T11:38:24.120Z,86.6
2024-02-05T11:39:24.384Z,86.5
2024-02-05T11:40:24.680Z,86.6
2024-02-05T11:41:24.107Z,86.5
2024-02-05T11:42:24.034Z,86.6
2024-02-05T11:43:24.325Z,86.5
2024-02-05T11:44:24.073Z,86.6
2024-02-05T11:45:24.134Z,86.5
2024-02-05T11:46:24.246Z,86.6
2024-02-05T11:47:24.064Z,86.6
2024-02-05T11:48:24.515Z,86.7
2024-02-05T11:49:24.173Z,86.7
2024-02-05T11:50:24.161Z,86.7
2024-02-05T11:51:24.024Z,86.6
2024-02-05T11:52:24.075Z,86.6
2024-02-05T11:53:24.100Z,86.7
2024-02-05T11:54:24.022Z,86.8
2024-02-05T11:55:24.344Z,86.7
2024-02-05T11:56:24.146Z,86.7
2024-02-05T11:57:24.035Z,86.7
2024-02-05T11:58:24.051Z,86.6
2024-02-05T11:59:24.027Z,86.6
2024-02-05T12:00:24.065Z,86.6
2024-02-05T12:01:24.226Z,86.6
2024-02-05T12:02:23.988Z,86.7
2024-02-05T12:03:24.159Z,86.7
2024-02-05T12:04:24.134Z,86.6
2024-02-05T12:05:24.119Z,86.6
2024-02-05T12:06:24.051Z,86.7
2024-02-05T12:07:24.160Z,86.7
2024-02-05T12:08:24.077Z,86.6
2024-02-05T12:09:24.130Z,86.7
2024-02-05T12:10:24.140Z,86.8
2024-02-05T12:11:24.000Z,86.8
2024-02-05T12:12:24.055Z,86.7
2024-02-05T12:13:24.222Z,86.7
2024-02-05T12:14:24.039Z,86.7
2024-02-05T12:15:24.035Z,86.8
2024-02-05T12:16:24.135Z,86.7
2024-02-05T12:17:24.009Z,86.8
2024-02-05T12:18:24.061Z,86.9
2024-02-05T12:19:24.431Z,86.7
2024-02-05T12:20:24.203Z,86.7
2024-02-05T12:21:24.163Z,86.7
2024-02-05T12:22:24.218Z,86.7
2024-02-05T12:23:24.050Z,86.7
2024-02-05T12:24:24.044Z,86.7
2024-02-05T12:25:34.205Z,86.7
2024-02-05T12:26:23.987Z,86.7
2024-02-05T12:27:24.053Z,86.8
2024-02-05T12:28:24.059Z,86.7
2024-02-05T12:29:24.100Z,86.8
2024-02-05T12:30:24.076Z,86.8
2024-02-05T12:31:24.104Z,86.8
2024-02-05T12:32:30.243Z,86.8
2024-02-05T12:33:24.084Z,86.8
2024-02-05T12:34:24.149Z,86.8
2024-02-05T12:35:24.040Z,86.8
2024-02-05T12:36:24.177Z,86.8
2024-02-05T12:37:24.193Z,86.8
2024-02-05T12:38:24.612Z,86.8
2024-02-05T12:39:24.001Z,86.8
2024-02-05T12:40:24.038Z,86.8
2024-02-05T12:41:23.978Z,86.8
2024-02-05T12:42:24.044Z,86.7
2024-02-05T12:43:24.071Z,86.8
2024-02-05T12:44:33.289Z,86.8
2024-02-05T12:45:23.947Z,86.8
2024-02-05T12:46:24.262Z,86.8
2024-02-05T12:47:23.978Z,86.8
2024-02-05T12:48:24.162Z,86.8
2024-02-05T12:49:24.343Z,86.9
2024-02-05T12:50:24.004Z,86.8
2024-02-05T12:51:23.944Z,86.7
2024-02-05T12:52:24.232Z,86.8
2024-02-05T12:53:24.034Z,86.7
2024-02-05T12:54:23.914Z,86.8
2024-02-05T12:55:24.085Z,86.8
2024-02-05T12:56:23.946Z,86.7
2024-02-05T12:57:23.952Z,86.8
2024-02-05T12:58:24.283Z,86.7
2024-02-05T12:59:24.193Z,86.7
2024-02-05T13:00:23.992Z,86.7
2024-02-05T13:01:24.053Z,86.7
2024-02-05T13:02:24.150Z,86.7
2024-02-05T13:03:24.091Z,86.7
2024-02-05T13:04:24.089Z,86.7
2024-02-05T13:05:24.188Z,86.7
2024-02-05T13:06:24.112Z,86.8
2024-02-05T13:07:24.281Z,86.8
2024-02-05T13:08:24.102Z,86.9
2024-02-05T13:09:23.919Z,86.8
2024-02-05T13:10:24.072Z,86.8
2024-02-05T13:11:23.963Z,86.9
2024-02-05T13:12:23.964Z,86.9
2024-02-05T13:13:27.451Z,86.8
2024-02-05T13:14:24.025Z,86.9
2024-02-05T13:15:24.101Z,87.0
2024-02-05T13:16:23.987Z,87.0
2024-02-05T13:17:24.015Z,86.9
2024-02-05T13:18:24.013Z,86.8
2024-02-05T13:19:24.000Z,86.9
2024-02-05T13:20:24.084Z,86.8
2024-02-05T13:21:23.955Z,86.8
2024-02-05T13:22:24.071Z,86.8
2024-02-05T13:23:23.996Z,86.8
2024-02-05T13:24:23.958Z,86.9